Time;durP1;ratioP1;P1;durP2;ratioP2;P2;SDS_P1;SDS_P2;PMS_P1;PMS_P2;Temp;Humidity;BMP_temperature;BMP_pressure;BME280_temperature;BME280_humidity;BME280_pressure;Samples;Min_cycle;Max_cycle;Signal;HPM_P1;HPM_P2
2021/07/05 00:02:11;;;;;;;22.13;8.75;;;17.30;99.90;;;;;;5044402;28;20022;-73
2021/07/05 00:04:37;;;;;;;16.60;9.00;;;17.30;99.90;;;;;;5040031;28;20109;-73
2021/07/05 00:07:04;;;;;;;12.27;7.65;;;17.30;99.90;;;;;;5025078;28;20041;-72
2021/07/05 00:09:31;;;;;;;18.48;7.97;;;17.20;99.90;;;;;;5024607;28;20102;-73
2021/07/05 00:11:56;;;;;;;11.95;7.93;;;17.30;99.90;;;;;;5025183;28;20022;-74
2021/07/05 00:14:22;;;;;;;11.65;6.32;;;17.30;99.90;;;;;;5024746;28;20061;-75
2021/07/05 00:16:48;;;;;;;12.98;7.45;;;17.30;99.90;;;;;;5023977;28;20540;-73
2021/07/05 00:19:13;;;;;;;13.00;6.57;;;17.30;99.90;;;;;;5024638;28;20029;-73
2021/07/05 00:21:39;;;;;;;19.05;7.68;;;17.30;99.90;;;;;;5039635;28;20056;-73
2021/07/05 00:24:05;;;;;;;13.90;8.65;;;17.30;99.90;;;;;;5024445;28;20041;-74
2021/07/05 00:26:30;;;;;;;13.88;7.65;;;17.30;99.90;;;;;;5024909;28;20026;-74
2021/07/05 00:28:56;;;;;;;10.40;7.05;;;17.30;99.90;;;;;;5024799;28;20485;-75
2021/07/05 00:31:22;;;;;;;16.65;8.30;;;17.30;99.90;;;;;;5039703;28;20060;-74
2021/07/05 00:33:48;;;;;;;12.45;6.55;;;17.30;99.90;;;;;;5024940;28;20034;-73
2021/07/05 00:36:13;;;;;;;14.70;7.30;;;17.30;99.90;;;;;;5024682;28;20018;-73
2021/07/05 00:38:39;;;;;;;12.38;6.97;;;17.30;99.90;;;;;;5024272;28;20038;-73
2021/07/05 00:41:05;;;;;;;14.05;7.32;;;17.30;99.90;;;;;;5024700;28;20041;-73
2021/07/05 00:43:31;;;;;;;13.32;7.20;;;17.30;99.90;;;;;;5024246;28;20317;-75
2021/07/05 00:45:57;;;;;;;16.40;8.32;;;17.30;99.90;;;;;;5039572;28;20544;-74
2021/07/05 00:48:23;;;;;;;12.25;6.47;;;17.30;99.90;;;;;;5024726;28;20397;-74
2021/07/05 00:50:48;;;;;;;12.50;6.78;;;17.30;99.90;;;;;;5039555;28;20030;-75
2021/07/05 00:53:15;;;;;;;11.50;7.35;;;17.30;99.90;;;;;;5024243;28;20030;-75
2021/07/05 00:55:40;;;;;;;12.73;7.32;;;17.20;99.90;;;;;;5024288;28;20073;-75
2021/07/05 00:58:06;;;;;;;9.77;6.15;;;17.30;99.90;;;;;;5023816;28;20034;-73
2021/07/05 01:00:32;;;;;;;17.90;5.97;;;17.30;99.90;;;;;;5023911;28;20034;-76
2021/07/05 01:02:58;;;;;;;16.50;5.60;;;17.20;99.90;;;;;;5024268;28;20034;-75
2021/07/05 01:05:24;;;;;;;15.80;6.90;;;17.20;99.90;;;;;;5024069;28;20040;-74
2021/07/05 01:07:50;;;;;;;12.48;6.97;;;17.20;99.90;;;;;;5024555;28;20108;-75
2021/07/05 01:10:18;;;;;;;14.85;6.88;;;17.20;99.90;;;;;;5039348;28;20034;-75
2021/07/05 01:12:44;;;;;;;15.52;7.40;;;17.20;99.90;;;;;;5039168;28;20026;-74
2021/07/05 01:15:14;;;;;;;17.95;7.00;;;17.20;99.90;;;;;;5024338;28;20029;-75
2021/07/05 01:17:41;;;;;;;17.85;7.72;;;17.20;99.90;;;;;;5024089;28;20037;-73
2021/07/05 01:20:09;;;;;;;21.08;7.68;;;17.10;99.90;;;;;;5024056;28;20030;-76
2021/07/05 01:22:35;;;;;;;15.05;8.00;;;17.10;99.90;;;;;;5024319;28;20056;-75
2021/07/05 01:25:02;;;;;;;15.40;8.27;;;17.10;99.90;;;;;;5027316;28;20042;-75
2021/07/05 01:27:27;;;;;;;15.10;9.02;;;17.10;99.90;;;;;;5027369;28;20093;-75
2021/07/05 01:29:53;;;;;;;18.77;8.27;;;17.10;99.90;;;;;;5028185;28;20081;-74
2021/07/05 01:32:18;;;;;;;20.33;9.65;;;17.10;99.90;;;;;;5027737;28;20037;-75
2021/07/05 01:34:44;;;;;;;16.13;8.82;;;17.10;99.90;;;;;;5027418;28;20567;-74
2021/07/05 01:37:11;;;;;;;19.77;9.73;;;17.10;99.90;;;;;;5028039;28;20029;-75
2021/07/05 01:39:37;;;;;;;23.48;10.80;;;17.10;99.90;;;;;;5027314;28;20030;-76
2021/07/05 01:42:04;;;;;;;19.25;9.70;;;17.20;99.90;;;;;;5042846;28;20033;-73
2021/07/05 01:44:31;;;;;;;22.33;9.75;;;17.20;99.90;;;;;;5042555;28;20077;-76
2021/07/05 01:46:57;;;;;;;22.50;10.70;;;17.10;99.90;;;;;;5026924;28;20022;-74
2021/07/05 01:49:23;;;;;;;41.58;11.23;;;17.10;99.90;;;;;;5027623;28;20064;-75
2021/07/05 01:51:49;;;;;;;17.02;9.73;;;17.10;99.90;;;;;;5027703;28;20037;-74
2021/07/05 01:54:15;;;;;;;17.92;10.00;;;17.10;99.90;;;;;;5026588;28;20069;-75
2021/07/05 01:56:43;;;;;;;21.85;10.57;;;17.00;99.90;;;;;;5042507;28;20064;-76
2021/07/05 01:59:10;;;;;;;22.30;11.27;;;17.10;99.90;;;;;;5026755;28;20038;-74
2021/07/05 02:01:37;;;;;;;21.65;10.80;;;17.10;99.90;;;;;;5027104;28;20049;-73
2021/07/05 02:04:04;;;;;;;23.83;11.23;;;17.10;99.90;;;;;;5027158;28;20030;-74
2021/07/05 02:06:30;;;;;;;25.70;10.70;;;17.10;99.90;;;;;;5025876;28;20029;-76
2021/07/05 02:08:56;;;;;;;24.85;10.50;;;17.10;99.90;;;;;;5027005;28;20029;-78
2021/07/05 02:11:22;;;;;;;21.77;10.43;;;17.00;99.90;;;;;;5027026;28;20026;-75
2021/07/05 02:13:48;;;;;;;16.38;8.70;;;17.10;99.90;;;;;;5026504;28;20069;-74
2021/07/05 02:16:14;;;;;;;17.25;7.63;;;17.00;99.90;;;;;;5026995;28;20030;-75
2021/07/05 02:18:40;;;;;;;13.40;7.18;;;17.00;99.90;;;;;;5042427;28;20026;-75
2021/07/05 02:21:08;;;;;;;9.50;6.38;;;16.90;99.90;;;;;;5026845;28;20475;-78
2021/07/05 02:23:34;;;;;;;11.75;6.55;;;16.90;99.90;;;;;;5026701;28;20036;-74
2021/07/05 02:26:01;;;;;;;16.52;6.93;;;16.90;99.90;;;;;;5027054;28;20096;-73
2021/07/05 02:28:30;;;;;;;14.75;7.07;;;16.90;99.90;;;;;;5026258;28;20045;-72
2021/07/05 02:30:56;;;;;;;16.17;7.68;;;16.90;99.90;;;;;;5025410;28;20061;-72
2021/07/05 02:33:24;;;;;;;12.23;5.72;;;16.80;99.90;;;;;;5025109;28;20065;-72
2021/07/05 02:35:51;;;;;;;11.65;6.07;;;16.80;99.90;;;;;;5025130;28;20056;-72
2021/07/05 02:38:19;;;;;;;13.05;6.28;;;16.70;99.90;;;;;;5026688;28;20034;-70
2021/07/05 02:40:47;;;;;;;9.68;5.75;;;16.70;99.90;;;;;;5041698;28;20076;-73
2021/07/05 02:43:14;;;;;;;12.57;6.93;;;16.70;99.90;;;;;;5026102;28;20093;-73
2021/07/05 02:45:42;;;;;;;14.35;6.43;;;16.70;99.90;;;;;;5026172;28;20053;-69
2021/07/05 02:48:10;;;;;;;10.82;6.45;;;16.60;99.90;;;;;;5026560;28;20018;-71
2021/07/05 02:50:38;;;;;;;17.35;6.97;;;16.70;99.90;;;;;;5025845;28;20037;-71
2021/07/05 02:53:06;;;;;;;12.80;6.75;;;16.70;99.90;;;;;;5026220;28;20028;-71
2021/07/05 02:55:32;;;;;;;9.85;5.97;;;16.70;99.90;;;;;;5025505;28;20057;-70
2021/07/05 02:57:58;;;;;;;15.48;7.28;;;16.70;99.90;;;;;;5026013;28;20030;-70
2021/07/05 03:00:29;;;;;;;10.55;6.93;;;16.70;99.90;;;;;;5026285;28;20044;-68
2021/07/05 03:02:55;;;;;;;15.85;7.18;;;16.70;99.90;;;;;;5026189;28;20025;-70
2021/07/05 03:05:26;;;;;;;15.50;8.15;;;16.60;99.90;;;;;;5025811;28;20049;-69
2021/07/05 03:07:53;;;;;;;20.00;8.18;;;16.60;99.90;;;;;;5041385;28;20045;-73
2021/07/05 03:10:24;;;;;;;24.92;8.98;;;16.60;99.90;;;;;;5040941;28;20066;-70
2021/07/05 03:12:50;;;;;;;11.75;7.05;;;16.60;99.90;;;;;;5025783;28;20036;-70
2021/07/05 03:15:17;;;;;;;13.05;7.95;;;16.50;99.90;;;;;;5025866;28;20030;-71
2021/07/05 03:17:44;;;;;;;21.48;7.70;;;16.50;99.90;;;;;;5025591;28;20061;-70
2021/07/05 03:20:16;;;;;;;22.75;8.40;;;16.50;99.90;;;;;;5025598;28;20040;-70
2021/07/05 03:22:42;;;;;;;20.35;8.80;;;16.50;99.90;;;;;;5025473;28;20025;-71
2021/07/05 03:25:10;;;;;;;15.38;7.13;;;16.50;99.90;;;;;;5025620;28;20052;-70
2021/07/05 03:27:36;;;;;;;20.10;9.48;;;16.40;99.90;;;;;;5025229;28;20025;-70
2021/07/05 03:30:04;;;;;;;20.10;7.78;;;16.40;99.90;;;;;;5025490;28;20037;-71
2021/07/05 03:32:29;;;;;;;16.90;8.23;;;16.40;99.90;;;;;;5025491;28;20041;-70
2021/07/05 03:34:55;;;;;;;18.13;7.47;;;16.40;99.90;;;;;;5025930;28;20030;-70
2021/07/05 03:37:20;;;;;;;18.98;7.75;;;16.30;99.90;;;;;;5025085;28;20025;-69
2021/07/05 03:39:46;;;;;;;15.82;7.78;;;16.40;99.90;;;;;;5025268;28;20061;-72
2021/07/05 03:42:12;;;;;;;17.30;7.88;;;16.30;99.90;;;;;;5025238;28;20030;-70
2021/07/05 03:44:37;;;;;;;12.63;7.15;;;16.30;99.90;;;;;;5025057;28;20041;-70
2021/07/05 03:47:03;;;;;;;16.40;7.63;;;16.40;99.90;;;;;;5024853;28;20030;-70
2021/07/05 03:49:29;;;;;;;15.95;7.55;;;16.30;99.90;;;;;;5025538;28;20037;-69
2021/07/05 03:51:54;;;;;;;13.90;7.38;;;16.30;99.90;;;;;;5025217;28;20081;-70
2021/07/05 03:54:20;;;;;;;14.60;7.85;;;16.30;99.90;;;;;;5024924;28;20107;-71
2021/07/05 03:56:45;;;;;;;18.92;9.18;;;16.30;99.90;;;;;;5024911;28;20068;-69
2021/07/05 03:59:12;;;;;;;21.35;8.63;;;16.30;99.90;;;;;;5024642;28;20030;-70
2021/07/05 04:01:37;;;;;;;16.60;8.02;;;16.30;99.90;;;;;;5024524;28;20030;-69
2021/07/05 04:04:03;;;;;;;18.42;7.85;;;16.40;99.90;;;;;;5024822;28;20092;-69
2021/07/05 04:06:28;;;;;;;15.77;7.45;;;16.40;99.90;;;;;;5025062;28;20022;-71
2021/07/05 04:08:58;;;;;;;14.70;7.45;;;16.30;99.90;;;;;;5025057;28;20061;-69
2021/07/05 04:11:24;;;;;;;13.70;7.13;;;16.40;99.90;;;;;;5024945;28;20093;-71
2021/07/05 04:13:50;;;;;;;19.52;8.05;;;16.40;99.90;;;;;;5024658;28;20025;-71
2021/07/05 04:16:15;;;;;;;14.70;7.90;;;16.40;99.90;;;;;;5024651;28;20033;-69
2021/07/05 04:18:41;;;;;;;17.50;7.80;;;16.40;99.90;;;;;;5024188;28;20033;-73
2021/07/05 04:21:06;;;;;;;15.63;7.68;;;16.40;99.90;;;;;;5024621;28;20391;-71
2021/07/05 04:23:32;;;;;;;18.23;8.35;;;16.30;99.90;;;;;;5024885;28;20057;-69
2021/07/05 04:25:59;;;;;;;14.30;7.15;;;16.30;99.90;;;;;;5024667;28;20115;-70
2021/07/05 04:28:25;;;;;;;15.82;8.00;;;16.30;99.90;;;;;;5024918;28;20022;-71
2021/07/05 04:30:51;;;;;;;15.77;7.82;;;16.30;99.90;;;;;;5039970;28;20037;-69
2021/07/05 04:33:16;;;;;;;16.13;8.25;;;16.30;99.90;;;;;;5023046;28;20064;-69
2021/07/05 04:35:42;;;;;;;14.48;7.60;;;16.30;99.90;;;;;;5024403;28;20121;-70
2021/07/05 04:38:08;;;;;;;21.40;8.82;;;16.30;99.90;;;;;;5024940;28;20053;-69
2021/07/05 04:40:36;;;;;;;16.80;7.75;;;16.30;99.90;;;;;;5024553;28;20471;-69
2021/07/05 04:43:04;;;;;;;22.83;8.40;;;16.30;99.90;;;;;;5031997;28;20034;-72
2021/07/05 04:45:32;;;;;;;15.68;7.47;;;16.30;99.90;;;;;;5044407;28;20486;-71
2021/07/05 04:48:00;;;;;;;16.08;8.45;;;16.40;99.90;;;;;;5044062;28;20082;-73
2021/07/05 04:50:27;;;;;;;22.50;7.30;;;16.40;99.90;;;;;;5042942;28;20030;-72
2021/07/05 04:52:53;;;;;;;15.98;8.05;;;16.40;99.90;;;;;;5044195;28;20029;-72
2021/07/05 04:55:20;;;;;;;17.17;8.20;;;16.40;99.90;;;;;;5043731;28;20057;-71
2021/07/05 04:57:47;;;;;;;18.67;8.60;;;16.40;99.90;;;;;;5043580;28;20053;-72
2021/07/05 05:00:27;;;;;;;14.75;7.20;;;16.40;99.90;;;;;;5048068;28;20036;-71
2021/07/05 05:02:53;;;;;;;15.15;8.50;;;16.40;99.90;;;;;;5048408;28;20109;-73
2021/07/05 05:05:21;;;;;;;16.73;8.05;;;16.40;99.90;;;;;;5047771;28;20504;-72
2021/07/05 05:07:47;;;;;;;16.52;7.60;;;16.30;99.90;;;;;;5047891;28;20025;-71
2021/07/05 05:10:13;;;;;;;19.67;8.48;;;16.50;99.90;;;;;;5047917;28;20032;-71
2021/07/05 05:12:39;;;;;;;16.60;8.02;;;16.50;99.90;;;;;;5047861;28;20062;-72
2021/07/05 05:15:07;;;;;;;14.93;7.43;;;16.40;99.90;;;;;;5046224;28;20032;-72
2021/07/05 05:17:34;;;;;;;13.30;8.00;;;16.50;99.90;;;;;;5047851;28;20026;-74
2021/07/05 05:20:00;;;;;;;15.60;7.55;;;16.50;99.90;;;;;;5048015;28;20084;-74
2021/07/05 05:22:25;;;;;;;13.40;7.65;;;16.40;99.90;;;;;;5047724;28;20097;-76
2021/07/05 05:24:51;;;;;;;18.25;7.72;;;16.50;99.90;;;;;;5047450;28;20049;-75
2021/07/05 05:27:17;;;;;;;18.50;8.05;;;16.40;99.90;;;;;;5047047;28;20030;-77
2021/07/05 05:29:42;;;;;;;12.43;7.43;;;16.50;99.90;;;;;;5045016;28;20105;-73
2021/07/05 05:32:09;;;;;;;17.40;8.63;;;16.50;99.90;;;;;;5045895;28;20112;-72
2021/07/05 05:34:35;;;;;;;15.70;7.75;;;16.60;99.90;;;;;;5047986;28;20053;-73
2021/07/05 05:37:01;;;;;;;13.02;7.95;;;16.40;99.90;;;;;;5046934;28;20064;-75
2021/07/05 05:39:27;;;;;;;17.25;8.75;;;16.50;99.90;;;;;;5047295;28;20378;-75
2021/07/05 05:41:53;;;;;;;16.67;8.10;;;16.50;99.90;;;;;;5047464;28;20132;-77
2021/07/05 05:44:18;;;;;;;16.83;8.50;;;16.40;99.90;;;;;;5045073;28;20493;-74
2021/07/05 05:46:44;;;;;;;15.15;7.68;;;16.50;99.90;;;;;;5062269;28;20494;-78
2021/07/05 05:49:10;;;;;;;22.58;8.95;;;16.50;99.90;;;;;;5062590;28;20062;-78
2021/07/05 05:51:36;;;;;;;13.63;6.93;;;16.50;99.90;;;;;;5047190;28;20029;-78
2021/07/05 05:54:03;;;;;;;15.35;8.05;;;16.60;99.90;;;;;;5045259;28;20493;-78
2021/07/05 05:56:32;;;;;;;16.35;8.15;;;16.70;99.90;;;;;;5047361;28;20021;-75
2021/07/05 05:59:04;;;;;;;13.75;7.28;;;16.60;99.90;;;;;;5042532;28;20432;-74
2021/07/05 06:01:31;;;;;;;15.48;8.23;;;16.60;99.90;;;;;;5027512;28;20126;-75
2021/07/05 06:03:57;;;;;;;25.25;9.43;;;16.70;99.90;;;;;;5027300;28;20026;-77
2021/07/05 06:06:23;;;;;;;25.55;10.27;;;16.60;99.90;;;;;;5040223;28;20438;-76
2021/07/05 06:08:49;;;;;;;15.25;7.72;;;16.60;99.90;;;;;;5047069;28;20053;-76
2021/07/05 06:11:15;;;;;;;19.02;9.27;;;16.70;99.90;;;;;;5045251;28;20044;-77
2021/07/05 06:13:41;;;;;;;16.40;8.27;;;16.80;99.90;;;;;;5045197;28;20025;-77
2021/07/05 06:16:07;;;;;;;14.20;8.20;;;16.80;99.90;;;;;;5041516;28;20442;-74
2021/07/05 06:18:33;;;;;;;23.38;11.73;;;16.80;99.90;;;;;;5026646;28;20026;-75
2021/07/05 06:20:59;;;;;;;23.27;10.20;;;16.80;99.90;;;;;;5026187;28;20026;-77
2021/07/05 06:23:28;;;;;;;17.95;9.13;;;16.80;99.90;;;;;;5027022;28;20034;-75
2021/07/05 06:25:55;;;;;;;14.57;8.93;;;16.80;99.90;;;;;;5025291;28;20091;-74
2021/07/05 06:28:23;;;;;;;19.77;8.88;;;16.80;99.90;;;;;;5041187;28;20029;-77
2021/07/05 06:30:49;;;;;;;16.70;8.27;;;16.70;99.90;;;;;;5041707;28;20021;-70
2021/07/05 06:33:17;;;;;;;18.20;8.68;;;16.80;99.90;;;;;;5026346;28;20072;-73
2021/07/05 06:35:44;;;;;;;22.45;8.90;;;16.90;99.90;;;;;;5041614;28;20499;-76
2021/07/05 06:38:11;;;;;;;18.30;8.63;;;16.80;99.90;;;;;;5025951;28;20029;-78
2021/07/05 06:40:40;;;;;;;15.18;7.72;;;16.80;99.90;;;;;;5035860;28;20088;-77
2021/07/05 06:43:06;;;;;;;14.82;8.02;;;16.90;99.90;;;;;;5044969;28;20025;-76
2021/07/05 06:45:33;;;;;;;14.75;7.88;;;16.80;99.90;;;;;;5045812;28;20041;-78
2021/07/05 06:47:59;;;;;;;18.95;10.00;;;16.80;99.90;;;;;;5045163;28;20029;-72
2021/07/05 06:50:34;;;;;;;19.73;9.70;;;16.90;99.90;;;;;;5045814;28;20052;-74
2021/07/05 06:53:01;;;;;;;17.35;8.75;;;16.90;99.90;;;;;;5052171;28;20026;-73
2021/07/05 06:55:26;;;;;;;19.30;10.05;;;17.00;99.90;;;;;;5039069;28;20049;-76
2021/07/05 06:57:52;;;;;;;16.08;7.82;;;17.00;99.90;;;;;;5044543;28;20028;-77
2021/07/05 07:00:21;;;;;;;15.32;7.97;;;17.10;99.90;;;;;;5046484;28;20039;-71
2021/07/05 07:02:47;;;;;;;16.40;8.52;;;17.20;99.90;;;;;;5041300;28;20140;-73
2021/07/05 07:05:18;;;;;;;21.67;8.95;;;17.30;99.90;;;;;;5040986;28;20064;-72
2021/07/05 07:08:03;;;;;;;21.48;10.35;;;17.30;99.90;;;;;;5025860;28;20445;-74
2021/07/05 07:10:28;;;;;;;18.90;10.18;;;17.40;99.90;;;;;;5026170;28;20085;-74
2021/07/05 07:12:56;;;;;;;22.08;10.32;;;17.40;99.90;;;;;;5030937;28;20074;-72
2021/07/05 07:15:30;;;;;;;21.45;9.50;;;17.50;99.90;;;;;;5044291;28;20215;-75
2021/07/05 07:20:24;;;;;;;18.27;8.30;;;17.60;99.90;;;;;;5044967;28;20037;-70
2021/07/05 07:22:50;;;;;;;14.35;8.30;;;17.70;99.90;;;;;;5044665;28;20189;-72
2021/07/05 07:25:16;;;;;;;14.25;8.10;;;17.70;99.90;;;;;;5044814;28;20037;-71
2021/07/05 07:27:42;;;;;;;17.85;8.95;;;17.80;99.90;;;;;;5044992;28;20033;-73
2021/07/05 07:30:10;;;;;;;16.77;8.10;;;17.80;99.90;;;;;;5043628;28;20025;-72
2021/07/05 07:32:36;;;;;;;29.50;7.88;;;17.90;99.90;;;;;;5027727;28;20044;-74
2021/07/05 07:35:04;;;;;;;18.25;7.68;;;18.00;99.90;;;;;;5039801;28;20018;-69
2021/07/05 07:37:31;;;;;;;17.38;8.27;;;18.10;99.90;;;;;;5045699;28;20025;-72
2021/07/05 07:40:02;;;;;;;14.00;7.85;;;18.20;99.90;;;;;;5045470;28;20025;-70
2021/07/05 07:42:29;;;;;;;13.07;7.20;;;18.30;99.90;;;;;;5045092;28;20078;-72
2021/07/05 07:44:54;;;;;;;11.35;6.50;;;18.40;99.90;;;;;;5045464;28;20048;-72
2021/07/05 07:47:20;;;;;;;12.30;7.63;;;18.40;99.90;;;;;;5060392;28;20057;-71
2021/07/05 07:49:46;;;;;;;15.30;7.82;;;18.50;99.90;;;;;;5041947;28;20025;-69
2021/07/05 07:52:12;;;;;;;15.82;7.50;;;18.50;99.90;;;;;;5044790;28;20036;-72
2021/07/05 07:54:37;;;;;;;14.88;7.60;;;18.60;99.90;;;;;;5044290;28;20049;-68
2021/07/05 07:57:03;;;;;;;13.95;8.40;;;18.70;99.90;;;;;;5044109;28;20036;-70
2021/07/05 07:59:30;;;;;;;9.93;6.50;;;18.80;99.90;;;;;;5044622;28;20091;-70
2021/07/05 08:01:56;;;;;;;16.60;8.25;;;18.90;99.90;;;;;;5043950;28;20018;-75
2021/07/05 08:04:22;;;;;;;12.77;7.18;;;19.00;99.90;;;;;;5043623;28;20038;-72
2021/07/05 08:06:48;;;;;;;16.95;7.75;;;19.00;99.90;;;;;;5045040;28;20117;-71
2021/07/05 08:09:13;;;;;;;15.45;7.65;;;19.00;99.90;;;;;;5043285;28;20029;-69
2021/07/05 08:11:39;;;;;;;15.45;8.65;;;19.10;99.90;;;;;;5043423;28;20029;-73
2021/07/05 08:14:06;;;;;;;15.18;7.97;;;19.10;99.90;;;;;;5043425;28;20030;-72
2021/07/05 08:16:34;;;;;;;16.67;8.93;;;19.10;99.90;;;;;;5044381;28;20033;-74
2021/07/05 08:19:01;;;;;;;18.05;7.18;;;19.10;99.90;;;;;;5042585;28;20391;-80
2021/07/05 08:21:28;;;;;;;12.52;7.32;;;19.10;99.90;;;;;;5043000;28;20029;-76
2021/07/05 08:23:53;;;;;;;10.57;6.45;;;19.10;99.90;;;;;;5043133;28;20017;-73
2021/07/05 08:26:30;;;;;;;15.65;7.50;;;19.10;99.90;;;;;;5043930;28;20135;-72
2021/07/05 08:28:57;;;;;;;9.88;6.50;;;19.00;99.90;;;;;;5043651;28;20397;-72
2021/07/05 08:31:23;;;;;;;15.90;6.97;;;19.00;99.90;;;;;;5038936;28;20041;-76
2021/07/05 08:33:50;;;;;;;13.68;7.13;;;19.00;99.90;;;;;;5024432;28;20072;-73
2021/07/05 08:36:20;;;;;;;14.57;7.80;;;19.10;99.90;;;;;;5041577;28;20033;-73
2021/07/05 08:38:48;;;;;;;10.88;6.43;;;19.10;99.90;;;;;;5043106;28;20026;-78
2021/07/05 08:41:14;;;;;;;10.45;6.47;;;19.20;99.90;;;;;;5044024;28;20029;-73
2021/07/05 08:43:43;;;;;;;10.18;5.65;;;19.10;99.90;;;;;;5038606;28;20029;-74
2021/07/05 08:46:11;;;;;;;10.35;5.80;;;19.20;99.90;;;;;;5043614;28;20101;-75
2021/07/05 08:48:39;;;;;;;11.50;7.05;;;19.30;99.90;;;;;;5042450;28;20060;-70
2021/07/05 08:51:12;;;;;;;11.27;5.82;;;19.30;99.90;;;;;;5041038;28;20045;-79
2021/07/05 08:53:39;;;;;;;10.68;6.07;;;19.40;99.90;;;;;;5042591;28;20025;-77
2021/07/05 08:56:05;;;;;;;8.38;5.75;;;19.40;99.90;;;;;;5044258;28;20045;-76
2021/07/05 08:58:31;;;;;;;11.95;5.35;;;19.40;99.90;;;;;;5042687;28;20025;-74
2021/07/05 09:00:58;;;;;;;9.18;5.38;;;19.40;99.90;;;;;;5043543;28;20033;-73
2021/07/05 09:03:27;;;;;;;16.90;6.15;;;19.40;99.90;;;;;;5041017;28;20026;-76
2021/07/05 09:06:14;;;;;;;9.70;6.00;;;19.50;99.90;;;;;;5030957;28;20517;-77
2021/07/05 09:08:45;;;;;;;12.25;6.10;;;19.60;99.90;;;;;;5023977;28;20026;-76
2021/07/05 09:11:15;;;;;;;10.40;6.43;;;19.60;99.90;;;;;;5023371;28;20034;-78
2021/07/05 09:13:48;;;;;;;10.38;5.60;;;19.60;99.90;;;;;;5023470;28;20029;-76
2021/07/05 09:16:31;;;;;;;7.78;4.80;;;19.80;99.90;;;;;;5024065;28;20397;-75
2021/07/05 09:18:58;;;;;;;8.27;5.40;;;19.80;99.90;;;;;;5024102;28;20053;-77
2021/07/05 09:21:33;;;;;;;10.18;5.30;;;19.80;99.90;;;;;;5024477;28;20030;-74
2021/07/05 09:24:07;;;;;;;10.75;5.30;;;19.90;99.90;;;;;;5024062;28;20355;-74
2021/07/05 09:26:41;;;;;;;10.20;5.93;;;19.90;99.90;;;;;;5022721;28;20030;-73
2021/07/05 09:29:13;;;;;;;9.68;6.05;;;19.80;99.90;;;;;;5024180;28;20030;-75
2021/07/05 09:31:43;;;;;;;10.27;4.15;;;19.70;99.90;;;;;;5022602;28;20416;-74
2021/07/05 09:34:19;;;;;;;10.60;5.57;;;19.60;99.90;;;;;;5021686;28;20018;-74
2021/07/05 09:36:46;;;;;;;10.35;5.25;;;19.40;99.90;;;;;;5022737;28;20036;-74
2021/07/05 09:39:14;;;;;;;11.57;6.22;;;19.30;99.90;;;;;;5022309;28;20038;-72
2021/07/05 09:41:40;;;;;;;13.40;6.45;;;19.30;99.90;;;;;;5022987;28;20088;-73
2021/07/05 09:44:19;;;;;;;9.68;5.07;;;19.20;99.90;;;;;;5025401;28;20414;-71
2021/07/05 09:46:56;;;;;;;8.60;4.30;;;19.10;99.90;;;;;;5025500;28;20029;-70
2021/07/05 09:49:24;;;;;;;15.30;5.85;;;19.10;99.90;;;;;;5028265;28;20038;-68
2021/07/05 09:52:25;;;;;;;11.27;6.13;;;19.00;99.90;;;;;;5032661;28;20034;-67
2021/07/05 09:54:53;;;;;;;11.50;6.60;;;18.70;99.90;;;;;;5046733;28;20057;-75
2021/07/05 09:57:35;;;;;;;11.60;7.15;;;18.50;99.90;;;;;;5046773;28;20470;-72
2021/07/05 10:00:10;;;;;;;19.02;7.43;;;18.40;99.90;;;;;;5047284;28;20028;-71
2021/07/05 10:02:37;;;;;;;12.23;6.53;;;18.30;99.90;;;;;;5046589;28;20030;-70
2021/07/05 10:05:16;;;;;;;11.60;6.20;;;18.20;99.90;;;;;;5046232;28;20068;-69
2021/07/05 10:07:43;;;;;;;10.27;6.35;;;18.20;99.90;;;;;;5045113;28;20048;-69
2021/07/05 10:10:18;;;;;;;13.38;6.10;;;18.10;99.90;;;;;;5046686;28;20033;-72
2021/07/05 10:12:58;;;;;;;10.85;7.47;;;18.10;99.90;;;;;;5045292;28;20365;-70
2021/07/05 10:15:25;;;;;;;11.18;6.68;;;18.10;99.90;;;;;;5047232;28;20032;-75
2021/07/05 10:17:53;;;;;;;19.48;7.40;;;18.10;99.90;;;;;;5044935;28;20122;-79
2021/07/05 10:20:26;;;;;;;12.93;7.45;;;18.20;99.90;;;;;;5044902;28;20029;-75
2021/07/05 10:22:58;;;;;;;13.35;8.45;;;18.20;99.90;;;;;;5047148;28;20021;-77
2021/07/05 10:25:26;;;;;;;15.55;8.88;;;18.20;99.90;;;;;;5045290;28;20048;-75
2021/07/05 10:27:53;;;;;;;13.10;7.75;;;18.20;99.90;;;;;;5045030;28;20120;-72
2021/07/05 10:30:19;;;;;;;10.43;6.72;;;18.30;99.90;;;;;;5046477;28;20045;-71
2021/07/05 10:32:46;;;;;;;8.77;5.13;;;18.40;99.90;;;;;;5046562;28;20033;-68
2021/07/05 10:35:15;;;;;;;5.60;3.60;;;18.40;99.90;;;;;;5045951;28;20025;-73
2021/07/05 10:38:00;;;;;;;5.93;2.97;;;18.40;99.90;;;;;;5045498;28;20053;-71
2021/07/05 10:40:47;;;;;;;4.75;3.08;;;18.20;99.90;;;;;;5046287;28;20030;-72
2021/07/05 10:43:23;;;;;;;7.93;4.25;;;18.20;99.90;;;;;;5046128;28;20037;-72
2021/07/05 10:45:52;;;;;;;5.47;3.33;;;18.10;99.90;;;;;;5044655;28;20048;-73
2021/07/05 10:48:31;;;;;;;5.82;3.65;;;18.10;99.90;;;;;;5045766;28;20105;-74
2021/07/05 10:50:58;;;;;;;4.00;2.97;;;18.10;99.90;;;;;;5046503;28;20026;-77
2021/07/05 10:53:34;;;;;;;4.53;2.58;;;18.10;99.90;;;;;;5046081;28;20031;-73
2021/07/05 10:56:01;;;;;;;4.20;2.78;;;18.10;99.90;;;;;;5045012;28;20050;-73
2021/07/05 10:58:33;;;;;;;8.25;3.75;;;18.10;99.90;;;;;;5046040;28;20083;-74
2021/07/05 11:01:03;;;;;;;5.90;3.00;;;18.10;99.90;;;;;;5046350;28;20025;-73
2021/07/05 11:03:40;;;;;;;5.20;3.17;;;18.10;99.90;;;;;;5045774;28;20049;-76
2021/07/05 11:06:21;;;;;;;5.50;3.72;;;18.10;99.90;;;;;;5045689;28;20091;-73
2021/07/05 11:08:51;;;;;;;7.80;4.00;;;18.00;99.90;;;;;;5045720;28;20108;-72
2021/07/05 11:11:28;;;;;;;6.68;4.47;;;17.90;99.90;;;;;;5045856;28;20049;-72
2021/07/05 11:14:34;;;;;;;8.30;4.63;;;18.00;99.90;;;;;;5046049;28;20029;-72
2021/07/05 11:17:04;;;;;;;7.35;4.70;;;18.00;99.90;;;;;;5044776;28;20042;-74
2021/07/05 11:19:48;;;;;;;8.82;5.47;;;18.00;99.90;;;;;;5045727;28;20097;-73
2021/07/05 11:22:36;;;;;;;11.32;6.07;;;18.00;99.90;;;;;;5045511;28;20033;-70
2021/07/05 11:25:17;;;;;;;9.98;6.45;;;18.00;99.90;;;;;;5045295;28;20091;-74
2021/07/05 11:27:59;;;;;;;11.38;6.68;;;17.90;99.90;;;;;;5045411;28;20026;-74
2021/07/05 11:30:39;;;;;;;14.55;7.43;;;17.90;99.90;;;;;;5045449;28;20058;-74
2021/07/05 11:33:24;;;;;;;12.82;7.13;;;17.90;99.90;;;;;;5045493;28;20085;-73
2021/07/05 11:36:01;;;;;;;14.50;8.52;;;17.90;99.90;;;;;;5045333;28;20025;-74
2021/07/05 11:38:34;;;;;;;13.68;7.28;;;17.90;99.90;;;;;;5045432;28;20018;-74
2021/07/05 11:41:06;;;;;;;10.50;6.10;;;17.90;99.90;;;;;;5045450;28;20134;-75
2021/07/05 11:44:03;;;;;;;7.57;5.00;;;17.80;99.90;;;;;;5044869;28;20033;-73
2021/07/05 11:46:29;;;;;;;9.32;5.65;;;17.80;99.90;;;;;;5045225;28;20465;-72
2021/07/05 11:48:55;;;;;;;8.02;4.63;;;17.80;99.90;;;;;;5045292;28;20034;-75
2021/07/05 11:51:30;;;;;;;6.78;4.45;;;17.80;99.90;;;;;;5044721;28;20033;-76
2021/07/05 11:54:00;;;;;;;8.75;5.00;;;17.80;99.90;;;;;;5051122;28;20060;-71
2021/07/05 11:56:29;;;;;;;8.35;5.35;;;17.90;99.90;;;;;;5045043;28;20081;-73
2021/07/05 11:58:55;;;;;;;12.98;5.82;;;18.10;99.90;;;;;;5044701;28;20025;-73
2021/07/05 12:01:21;;;;;;;9.88;5.72;;;18.40;99.90;;;;;;5045015;28;20029;-71
2021/07/05 12:03:53;;;;;;;10.02;4.85;;;18.60;99.90;;;;;;5044916;28;20030;-72
2021/07/05 12:06:20;;;;;;;11.55;6.68;;;18.90;99.90;;;;;;5044535;28;20037;-73
2021/07/05 12:08:58;;;;;;;10.27;6.15;;;19.00;99.90;;;;;;5043172;28;20025;-72
2021/07/05 12:11:28;;;;;;;8.45;5.30;;;19.20;99.90;;;;;;5044669;28;20025;-72
2021/07/05 12:14:08;;;;;;;8.60;5.53;;;19.40;99.90;;;;;;5043464;28;20096;-71
2021/07/05 12:16:35;;;;;;;8.93;5.45;;;19.40;99.90;;;;;;5043314;28;20025;-74
2021/07/05 12:19:04;;;;;;;10.43;5.32;;;19.40;99.90;;;;;;5044657;28;20381;-70
2021/07/05 12:21:52;;;;;;;7.65;4.50;;;19.60;99.90;;;;;;5044962;28;20033;-76
2021/07/05 12:24:31;;;;;;;8.20;4.95;;;19.70;99.90;;;;;;5044457;28;20025;-70
2021/07/05 12:26:59;;;;;;;10.50;5.32;;;19.70;99.90;;;;;;5044872;28;20048;-72
2021/07/05 12:29:34;;;;;;;11.80;5.82;;;19.60;99.90;;;;;;5044330;28;20030;-72
2021/07/05 12:32:14;;;;;;;6.65;4.60;;;19.60;99.90;;;;;;5036753;28;20033;-74
2021/07/05 12:34:49;;;;;;;10.23;5.07;;;19.70;99.90;;;;;;5044834;28;20030;-74
2021/07/05 12:37:20;;;;;;;5.22;3.78;;;19.70;99.90;;;;;;5044644;28;20080;-74
2021/07/05 12:39:56;;;;;;;12.68;4.10;;;19.80;99.90;;;;;;5044157;28;20026;-74
2021/07/05 12:42:35;;;;;;;4.78;2.95;;;19.80;99.90;;;;;;5044278;28;20494;-74
2021/07/05 12:45:12;;;;;;;7.88;3.88;;;19.90;99.90;;;;;;5043238;28;20041;-75
2021/07/05 12:47:52;;;;;;;8.00;3.28;;;19.90;99.90;;;;;;5042862;28;20444;-73
2021/07/05 12:50:23;;;;;;;7.28;4.18;;;20.00;99.90;;;;;;5044681;28;20064;-75